sensor_id;sensor_type;location;lat;lon;timestamp;temperature;humidity
59556;DHT22;45374;52.746;6.304;2023-05-18T00:00:58;4.60;99.90
59556;DHT22;45374;52.746;6.304;2023-05-18T00:03:24;4.60;99.90
59556;DHT22;45374;52.746;6.304;2023-05-18T00:05:50;4.60;99.90
59556;DHT22;45374;52.746;6.304;2023-05-18T00:08:15;4.50;99.90
59556;DHT22;45374;52.746;6.304;2023-05-18T00:10:41;4.60;99.90
59556;DHT22;45374;52.746;6.304;2023-05-18T00:13:07;4.60;99.90
59556;DHT22;45374;52.746;6.304;2023-05-18T00:15:33;4.50;99.90
59556;DHT22;45374;52.746;6.304;2023-05-18T00:17:58;4.50;99.90
59556;DHT22;45374;52.746;6.304;2023-05-18T00:20:24;4.40;99.90
59556;DHT22;45374;52.746;6.304;2023-05-18T00:22:51;4.40;99.90
59556;DHT22;45374;52.746;6.304;2023-05-18T00:25:17;4.40;99.90
59556;DHT22;45374;52.746;6.304;2023-05-18T00:27:42;4.50;99.90
59556;DHT22;45374;52.746;6.304;2023-05-18T00:30:08;4.50;99.90
59556;DHT22;45374;52.746;6.304;2023-05-18T00:32:34;4.50;99.90
59556;DHT22;45374;52.746;6.304;2023-05-18T00:34:59;4.50;99.90
59556;DHT22;45374;52.746;6.304;2023-05-18T00:37:25;4.40;99.90
59556;DHT22;45374;52.746;6.304;2023-05-18T00:39:51;4.30;99.90
59556;DHT22;45374;52.746;6.304;2023-05-18T00:42:16;4.20;99.90
59556;DHT22;45374;52.746;6.304;2023-05-18T00:44:42;4.20;99.90
59556;DHT22;45374;52.746;6.304;2023-05-18T00:47:07;4.10;99.90
59556;DHT22;45374;52.746;6.304;2023-05-18T00:49:33;4.00;99.90
59556;DHT22;45374;52.746;6.304;2023-05-18T00:52:00;4.00;99.90
59556;DHT22;45374;52.746;6.304;2023-05-18T00:54:27;4.00;99.90
59556;DHT22;45374;52.746;6.304;2023-05-18T00:56:52;4.00;99.90
59556;DHT22;45374;52.746;6.304;2023-05-18T00:59:18;3.90;99.90
59556;DHT22;45374;52.746;6.304;2023-05-18T01:01:44;3.90;99.90
59556;DHT22;45374;52.746;6.304;2023-05-18T01:04:11;3.90;99.90
59556;DHT22;45374;52.746;6.304;2023-05-18T01:06:41;3.90;99.90
59556;DHT22;45374;52.746;6.304;2023-05-18T01:09:08;3.90;99.90
59556;DHT22;45374;52.746;6.304;2023-05-18T01:11:51;3.90;99.90
59556;DHT22;45374;52.746;6.304;2023-05-18T01:20:46;3.90;99.90
59556;DHT22;45374;52.746;6.304;2023-05-18T01:26:15;4.00;99.90
59556;DHT22;45374;52.746;6.304;2023-05-18T01:28:43;4.00;99.90
59556;DHT22;45374;52.746;6.304;2023-05-18T01:31:11;4.00;99.90
59556;DHT22;45374;52.746;6.304;2023-05-18T01:33:37;4.00;99.90
59556;DHT22;45374;52.746;6.304;2023-05-18T01:36:03;4.00;99.90
59556;DHT22;45374;52.746;6.304;2023-05-18T01:38:29;4.10;99.90
59556;DHT22;45374;52.746;6.304;2023-05-18T01:43:38;3.90;99.90
59556;DHT22;45374;52.746;6.304;2023-05-18T01:46:14;3.80;99.90
59556;DHT22;45374;52.746;6.304;2023-05-18T01:48:45;3.70;99.90
59556;DHT22;45374;52.746;6.304;2023-05-18T01:51:13;3.60;99.90
59556;DHT22;45374;52.746;6.304;2023-05-18T01:53:49;3.60;99.90
59556;DHT22;45374;52.746;6.304;2023-05-18T01:56:16;3.50;99.90
59556;DHT22;45374;52.746;6.304;2023-05-18T01:58:42;3.60;99.90
59556;DHT22;45374;52.746;6.304;2023-05-18T02:01:08;3.60;99.90
59556;DHT22;45374;52.746;6.304;2023-05-18T02:03:34;3.60;99.90
59556;DHT22;45374;52.746;6.304;2023-05-18T02:06:00;3.60;99.90
59556;DHT22;45374;52.746;6.304;2023-05-18T02:08:25;3.50;99.90
59556;DHT22;45374;52.746;6.304;2023-05-18T02:10:51;3.40;99.90
59556;DHT22;45374;52.746;6.304;2023-05-18T02:13:17;3.40;99.90
59556;DHT22;45374;52.746;6.304;2023-05-18T02:15:42;3.40;99.90
59556;DHT22;45374;52.746;6.304;2023-05-18T02:18:09;3.50;99.90
59556;DHT22;45374;52.746;6.304;2023-05-18T02:20:35;3.50;99.90
59556;DHT22;45374;52.746;6.304;2023-05-18T02:23:02;3.60;99.90
59556;DHT22;45374;52.746;6.304;2023-05-18T02:25:27;3.60;99.90
59556;DHT22;45374;52.746;6.304;2023-05-18T02:27:53;3.60;99.90
59556;DHT22;45374;52.746;6.304;2023-05-18T02:30:19;3.60;99.90
59556;DHT22;45374;52.746;6.304;2023-05-18T02:32:45;3.60;99.90
59556;DHT22;45374;52.746;6.304;2023-05-18T02:35:11;3.60;99.90
59556;DHT22;45374;52.746;6.304;2023-05-18T02:37:38;3.60;99.90
59556;DHT22;45374;52.746;6.304;2023-05-18T02:40:12;3.60;99.90
59556;DHT22;45374;52.746;6.304;2023-05-18T02:42:38;3.50;99.90
59556;DHT22;45374;52.746;6.304;2023-05-18T02:45:04;3.50;99.90
59556;DHT22;45374;52.746;6.304;2023-05-18T02:47:30;3.40;99.90
59556;DHT22;45374;52.746;6.304;2023-05-18T02:49:55;3.40;99.90
59556;DHT22;45374;52.746;6.304;2023-05-18T02:52:21;3.40;99.90
59556;DHT22;45374;52.746;6.304;2023-05-18T02:54:47;3.30;99.90
59556;DHT22;45374;52.746;6.304;2023-05-18T02:57:12;3.30;99.90
59556;DHT22;45374;52.746;6.304;2023-05-18T02:59:38;3.30;99.90
59556;DHT22;45374;52.746;6.304;2023-05-18T03:02:04;3.30;99.90
59556;DHT22;45374;52.746;6.304;2023-05-18T03:04:30;3.30;99.90
59556;DHT22;45374;52.746;6.304;2023-05-18T03:06:56;3.30;99.90
59556;DHT22;45374;52.746;6.304;2023-05-18T03:09:23;3.30;99.90
59556;DHT22;45374;52.746;6.304;2023-05-18T03:11:48;3.40;99.90
59556;DHT22;45374;52.746;6.304;2023-05-18T03:14:16;3.40;99.90
59556;DHT22;45374;52.746;6.304;2023-05-18T03:16:41;3.40;99.90
59556;DHT22;45374;52.746;6.304;2023-05-18T03:19:07;3.30;99.90
59556;DHT22;45374;52.746;6.304;2023-05-18T03:21:33;3.30;99.90
59556;DHT22;45374;52.746;6.304;2023-05-18T03:24:01;3.40;99.90
59556;DHT22;45374;52.746;6.304;2023-05-18T03:26:27;3.30;99.90
59556;DHT22;45374;52.746;6.304;2023-05-18T03:28:55;3.20;99.90
59556;DHT22;45374;52.746;6.304;2023-05-18T03:31:21;3.20;99.90
59556;DHT22;45374;52.746;6.304;2023-05-18T03:33:47;3.30;99.90
59556;DHT22;45374;52.746;6.304;2023-05-18T03:36:13;3.20;99.90
59556;DHT22;45374;52.746;6.304;2023-05-18T03:38:38;3.30;99.90
59556;DHT22;45374;52.746;6.304;2023-05-18T03:41:05;3.30;99.90
59556;DHT22;45374;52.746;6.304;2023-05-18T03:43:31;3.30;99.90
59556;DHT22;45374;52.746;6.304;2023-05-18T03:45:57;3.30;99.90
59556;DHT22;45374;52.746;6.304;2023-05-18T03:48:23;3.30;99.90
59556;DHT22;45374;52.746;6.304;2023-05-18T03:50:49;3.40;99.90
59556;DHT22;45374;52.746;6.304;2023-05-18T03:53:15;3.40;99.90
59556;DHT22;45374;52.746;6.304;2023-05-18T03:55:44;3.40;99.90
59556;DHT22;45374;52.746;6.304;2023-05-18T03:58:09;3.50;99.90
59556;DHT22;45374;52.746;6.304;2023-05-18T04:00:35;3.50;99.90
59556;DHT22;45374;52.746;6.304;2023-05-18T04:03:00;3.50;99.90
59556;DHT22;45374;52.746;6.304;2023-05-18T04:05:27;3.60;99.90
59556;DHT22;45374;52.746;6.304;2023-05-18T04:07:53;3.60;99.90
59556;DHT22;45374;52.746;6.304;2023-05-18T04:10:22;3.60;99.90
59556;DHT22;45374;52.746;6.304;2023-05-18T04:12:48;3.60;99.90
59556;DHT22;45374;52.746;6.304;2023-05-18T04:15:13;3.60;99.90
59556;DHT22;45374;52.746;6.304;2023-05-18T04:17:39;3.60;99.90
59556;DHT22;45374;52.746;6.304;2023-05-18T04:20:11;3.70;99.90
59556;DHT22;45374;52.746;6.304;2023-05-18T04:22:43;3.70;99.90
59556;DHT22;45374;52.746;6.304;2023-05-18T04:25:11;3.70;99.90
59556;DHT22;45374;52.746;6.304;2023-05-18T04:27:38;3.70;99.90
59556;DHT22;45374;52.746;6.304;2023-05-18T04:30:04;3.60;99.90
59556;DHT22;45374;52.746;6.304;2023-05-18T04:32:33;3.70;99.90
59556;DHT22;45374;52.746;6.304;2023-05-18T04:35:02;3.70;99.90
59556;DHT22;45374;52.746;6.304;2023-05-18T04:37:28;3.70;99.90
59556;DHT22;45374;52.746;6.304;2023-05-18T04:39:54;3.70;99.90
59556;DHT22;45374;52.746;6.304;2023-05-18T04:42:19;3.70;99.90
59556;DHT22;45374;52.746;6.304;2023-05-18T04:44:45;3.70;99.90
59556;DHT22;45374;52.746;6.304;2023-05-18T04:47:13;3.80;99.90
59556;DHT22;45374;52.746;6.304;2023-05-18T04:49:38;3.80;99.90
59556;DHT22;45374;52.746;6.304;2023-05-18T04:52:04;3.90;99.90
59556;DHT22;45374;52.746;6.304;2023-05-18T04:54:32;3.90;99.90
59556;DHT22;45374;52.746;6.304;2023-05-18T04:56:58;3.90;99.90
59556;DHT22;45374;52.746;6.304;2023-05-18T04:59:24;4.00;99.90
59556;DHT22;45374;52.746;6.304;2023-05-18T05:01:52;4.00;99.90
59556;DHT22;45374;52.746;6.304;2023-05-18T05:04:21;4.00;99.90
59556;DHT22;45374;52.746;6.304;2023-05-18T05:06:47;4.00;99.90
59556;DHT22;45374;52.746;6.304;2023-05-18T05:09:12;4.10;99.90
59556;DHT22;45374;52.746;6.304;2023-05-18T05:11:39;4.10;99.90
59556;DHT22;45374;52.746;6.304;2023-05-18T05:14:06;4.10;99.90
59556;DHT22;45374;52.746;6.304;2023-05-18T05:16:31;4.20;99.90
59556;DHT22;45374;52.746;6.304;2023-05-18T05:18:57;4.20;99.90
59556;DHT22;45374;52.746;6.304;2023-05-18T05:21:22;4.30;99.90
59556;DHT22;45374;52.746;6.304;2023-05-18T05:23:48;4.40;99.90
59556;DHT22;45374;52.746;6.304;2023-05-18T05:26:13;4.50;99.90
59556;DHT22;45374;52.746;6.304;2023-05-18T05:28:39;4.60;99.90
59556;DHT22;45374;52.746;6.304;2023-05-18T05:31:05;4.60;99.90
59556;DHT22;45374;52.746;6.304;2023-05-18T05:33:31;4.70;99.90
59556;DHT22;45374;52.746;6.304;2023-05-18T05:35:57;4.80;99.90
59556;DHT22;45374;52.746;6.304;2023-05-18T05:38:22;4.90;99.90
59556;DHT22;45374;52.746;6.304;2023-05-18T05:40:48;5.00;99.90
59556;DHT22;45374;52.746;6.304;2023-05-18T05:43:13;5.00;99.90
59556;DHT22;45374;52.746;6.304;2023-05-18T05:45:39;5.10;99.90
59556;DHT22;45374;52.746;6.304;2023-05-18T05:48:04;5.20;99.90
59556;DHT22;45374;52.746;6.304;2023-05-18T05:50:31;5.30;99.90
59556;DHT22;45374;52.746;6.304;2023-05-18T05:52:57;5.50;99.90
59556;DHT22;45374;52.746;6.304;2023-05-18T05:55:22;5.60;99.90
59556;DHT22;45374;52.746;6.304;2023-05-18T05:57:48;5.80;99.90
59556;DHT22;45374;52.746;6.304;2023-05-18T06:00:14;6.00;99.90
59556;DHT22;45374;52.746;6.304;2023-05-18T06:02:39;6.20;99.90
59556;DHT22;45374;52.746;6.304;2023-05-18T06:05:06;6.40;99.90
59556;DHT22;45374;52.746;6.304;2023-05-18T06:07:32;6.50;99.90
59556;DHT22;45374;52.746;6.304;2023-05-18T06:09:57;6.70;99.90
59556;DHT22;45374;52.746;6.304;2023-05-18T06:12:23;7.00;99.90
59556;DHT22;45374;52.746;6.304;2023-05-18T06:14:48;7.20;99.90
59556;DHT22;45374;52.746;6.304;2023-05-18T06:17:17;7.40;99.90
59556;DHT22;45374;52.746;6.304;2023-05-18T06:19:42;7.60;99.90
59556;DHT22;45374;52.746;6.304;2023-05-18T06:22:08;7.80;99.90
59556;DHT22;45374;52.746;6.304;2023-05-18T06:24:33;8.00;99.90
59556;DHT22;45374;52.746;6.304;2023-05-18T06:26:59;8.10;99.90
59556;DHT22;45374;52.746;6.304;2023-05-18T06:29:24;8.30;99.90
59556;DHT22;45374;52.746;6.304;2023-05-18T06:31:50;8.50;99.90
59556;DHT22;45374;52.746;6.304;2023-05-18T06:34:15;8.70;99.90
59556;DHT22;45374;52.746;6.304;2023-05-18T06:36:41;8.90;99.90
59556;DHT22;45374;52.746;6.304;2023-05-18T06:39:07;9.00;99.90
59556;DHT22;45374;52.746;6.304;2023-05-18T06:41:32;9.20;99.90
59556;DHT22;45374;52.746;6.304;2023-05-18T06:43:59;9.30;99.90
59556;DHT22;45374;52.746;6.304;2023-05-18T06:46:26;9.50;99.90
59556;DHT22;45374;52.746;6.304;2023-05-18T06:48:53;9.60;99.90
59556;DHT22;45374;52.746;6.304;2023-05-18T06:51:19;9.80;99.90
59556;DHT22;45374;52.746;6.304;2023-05-18T06:53:45;9.90;99.90
59556;DHT22;45374;52.746;6.304;2023-05-18T06:56:10;10.00;99.90
59556;DHT22;45374;52.746;6.304;2023-05-18T06:58:38;10.10;99.90
59556;DHT22;45374;52.746;6.304;2023-05-18T07:01:03;10.20;99.90
59556;DHT22;45374;52.746;6.304;2023-05-18T07:03:29;10.20;99.90
59556;DHT22;45374;52.746;6.304;2023-05-18T07:05:55;10.30;99.90
59556;DHT22;45374;52.746;6.304;2023-05-18T07:08:20;10.40;99.90
59556;DHT22;45374;52.746;6.304;2023-05-18T07:10:46;10.50;99.90
59556;DHT22;45374;52.746;6.304;2023-05-18T07:13:12;10.60;99.90
59556;DHT22;45374;52.746;6.304;2023-05-18T07:15:38;10.60;99.90
59556;DHT22;45374;52.746;6.304;2023-05-18T07:18:03;10.70;99.90
59556;DHT22;45374;52.746;6.304;2023-05-18T07:20:29;10.80;99.90
59556;DHT22;45374;52.746;6.304;2023-05-18T07:22:54;10.80;99.90
59556;DHT22;45374;52.746;6.304;2023-05-18T07:25:21;10.80;99.90
59556;DHT22;45374;52.746;6.304;2023-05-18T07:27:46;10.90;99.90
59556;DHT22;45374;52.746;6.304;2023-05-18T07:30:12;10.90;99.90
59556;DHT22;45374;52.746;6.304;2023-05-18T07:32:38;10.90;99.90
59556;DHT22;45374;52.746;6.304;2023-05-18T07:35:03;11.00;99.90
59556;DHT22;45374;52.746;6.304;2023-05-18T07:37:29;11.00;99.90
59556;DHT22;45374;52.746;6.304;2023-05-18T07:39:55;11.10;99.90
59556;DHT22;45374;52.746;6.304;2023-05-18T07:42:21;11.20;99.90
59556;DHT22;45374;52.746;6.304;2023-05-18T07:44:46;11.30;99.90
59556;DHT22;45374;52.746;6.304;2023-05-18T07:47:12;11.40;99.90
59556;DHT22;45374;52.746;6.304;2023-05-18T07:49:38;11.40;99.90
59556;DHT22;45374;52.746;6.304;2023-05-18T07:52:06;11.40;99.90
59556;DHT22;45374;52.746;6.304;2023-05-18T07:54:32;11.40;99.90
59556;DHT22;45374;52.746;6.304;2023-05-18T07:56:58;11.50;99.90
59556;DHT22;45374;52.746;6.304;2023-05-18T07:59:24;11.40;99.90
59556;DHT22;45374;52.746;6.304;2023-05-18T08:01:49;11.40;99.90
59556;DHT22;45374;52.746;6.304;2023-05-18T08:04:15;11.40;99.90
59556;DHT22;45374;52.746;6.304;2023-05-18T08:06:40;11.40;99.90
59556;DHT22;45374;52.746;6.304;2023-05-18T08:09:06;11.50;99.90
59556;DHT22;45374;52.746;6.304;2023-05-18T08:11:32;11.60;99.90
59556;DHT22;45374;52.746;6.304;2023-05-18T08:13:58;11.60;99.90
59556;DHT22;45374;52.746;6.304;2023-05-18T08:16:23;11.60;99.90
59556;DHT22;45374;52.746;6.304;2023-05-18T08:18:49;11.50;99.90
59556;DHT22;45374;52.746;6.304;2023-05-18T08:21:15;11.50;99.90
59556;DHT22;45374;52.746;6.304;2023-05-18T08:23:41;11.60;99.90
59556;DHT22;45374;52.746;6.304;2023-05-18T08:26:07;11.70;99.90
59556;DHT22;45374;52.746;6.304;2023-05-18T08:28:33;11.80;99.90
59556;DHT22;45374;52.746;6.304;2023-05-18T08:30:59;11.80;99.90
59556;DHT22;45374;52.746;6.304;2023-05-18T08:33:24;11.80;99.90
59556;DHT22;45374;52.746;6.304;2023-05-18T08:35:50;11.90;99.90
59556;DHT22;45374;52.746;6.304;2023-05-18T08:38:16;12.00;99.90
59556;DHT22;45374;52.746;6.304;2023-05-18T08:43:34;12.10;99.90
59556;DHT22;45374;52.746;6.304;2023-05-18T08:46:27;12.20;99.90
59556;DHT22;45374;52.746;6.304;2023-05-18T08:48:54;12.30;99.90
59556;DHT22;45374;52.746;6.304;2023-05-18T08:51:20;12.50;99.90
59556;DHT22;45374;52.746;6.304;2023-05-18T08:53:53;12.60;99.90
59556;DHT22;45374;52.746;6.304;2023-05-18T08:56:21;12.60;99.90
59556;DHT22;45374;52.746;6.304;2023-05-18T08:58:49;12.70;99.90
59556;DHT22;45374;52.746;6.304;2023-05-18T09:01:15;12.70;99.90
59556;DHT22;45374;52.746;6.304;2023-05-18T09:03:41;12.80;99.90
59556;DHT22;45374;52.746;6.304;2023-05-18T09:06:07;12.90;99.90
59556;DHT22;45374;52.746;6.304;2023-05-18T09:08:33;12.90;99.90
59556;DHT22;45374;52.746;6.304;2023-05-18T09:11:01;12.90;99.90
59556;DHT22;45374;52.746;6.304;2023-05-18T09:13:27;13.10;99.90
59556;DHT22;45374;52.746;6.304;2023-05-18T09:15:53;13.20;99.90
59556;DHT22;45374;52.746;6.304;2023-05-18T09:18:19;13.30;99.90
59556;DHT22;45374;52.746;6.304;2023-05-18T09:20:44;13.40;99.90
59556;DHT22;45374;52.746;6.304;2023-05-18T09:23:14;13.50;99.90
59556;DHT22;45374;52.746;6.304;2023-05-18T09:25:43;13.60;99.90
59556;DHT22;45374;52.746;6.304;2023-05-18T09:28:11;13.70;99.90
59556;DHT22;45374;52.746;6.304;2023-05-18T09:30:40;13.80;99.90
59556;DHT22;45374;52.746;6.304;2023-05-18T09:33:17;14.00;99.90
59556;DHT22;45374;52.746;6.304;2023-05-18T09:35:44;14.20;99.90
59556;DHT22;45374;52.746;6.304;2023-05-18T09:38:11;14.10;99.90
59556;DHT22;45374;52.746;6.304;2023-05-18T09:40:44;14.10;99.90
59556;DHT22;45374;52.746;6.304;2023-05-18T09:43:09;14.00;99.90
59556;DHT22;45374;52.746;6.304;2023-05-18T09:45:41;14.00;99.90
59556;DHT22;45374;52.746;6.304;2023-05-18T09:48:08;14.00;99.90
59556;DHT22;45374;52.746;6.304;2023-05-18T09:50:34;14.00;99.90
59556;DHT22;45374;52.746;6.304;2023-05-18T09:53:04;14.00;99.90
59556;DHT22;45374;52.746;6.304;2023-05-18T09:55:30;14.00;99.90
59556;DHT22;45374;52.746;6.304;2023-05-18T09:57:56;14.10;99.90
59556;DHT22;45374;52.746;6.304;2023-05-18T10:00:22;14.10;99.90
59556;DHT22;45374;52.746;6.304;2023-05-18T10:02:48;14.20;99.90
59556;DHT22;45374;52.746;6.304;2023-05-18T10:05:23;14.10;99.90
59556;DHT22;45374;52.746;6.304;2023-05-18T10:07:56;14.20;99.90
59556;DHT22;45374;52.746;6.304;2023-05-18T10:10:24;14.30;99.90
59556;DHT22;45374;52.746;6.304;2023-05-18T10:12:50;14.30;99.90
59556;DHT22;45374;52.746;6.304;2023-05-18T10:15:19;14.30;99.90
59556;DHT22;45374;52.746;6.304;2023-05-18T10:17:49;14.40;99.90
59556;DHT22;45374;52.746;6.304;2023-05-18T10:20:20;14.40;99.90
59556;DHT22;45374;52.746;6.304;2023-05-18T10:22:47;14.40;99.90
59556;DHT22;45374;52.746;6.304;2023-05-18T10:25:18;14.30;99.90
59556;DHT22;45374;52.746;6.304;2023-05-18T10:27:46;14.30;99.90
59556;DHT22;45374;52.746;6.304;2023-05-18T10:30:13;14.40;99.90
59556;DHT22;45374;52.746;6.304;2023-05-18T10:32:39;14.40;99.90
59556;DHT22;45374;52.746;6.304;2023-05-18T10:35:07;14.50;99.90
59556;DHT22;45374;52.746;6.304;2023-05-18T10:37:36;14.60;99.90
59556;DHT22;45374;52.746;6.304;2023-05-18T10:40:02;14.60;99.90
59556;DHT22;45374;52.746;6.304;2023-05-18T10:42:29;14.60;99.90
59556;DHT22;45374;52.746;6.304;2023-05-18T10:44:59;14.70;99.90
59556;DHT22;45374;52.746;6.304;2023-05-18T10:47:26;14.70;99.90
59556;DHT22;45374;52.746;6.304;2023-05-18T10:49:53;14.80;99.90
59556;DHT22;45374;52.746;6.304;2023-05-18T10:52:19;15.00;99.90
59556;DHT22;45374;52.746;6.304;2023-05-18T10:54:46;15.00;99.90
59556;DHT22;45374;52.746;6.304;2023-05-18T10:57:17;15.00;99.90
59556;DHT22;45374;52.746;6.304;2023-05-18T10:59:45;15.00;99.90
59556;DHT22;45374;52.746;6.304;2023-05-18T11:02:13;15.10;99.90
59556;DHT22;45374;52.746;6.304;2023-05-18T11:04:39;15.20;99.90
59556;DHT22;45374;52.746;6.304;2023-05-18T11:07:09;15.30;99.90
59556;DHT22;45374;52.746;6.304;2023-05-18T11:09:35;15.40;99.90
59556;DHT22;45374;52.746;6.304;2023-05-18T11:12:01;15.40;99.90
59556;DHT22;45374;52.746;6.304;2023-05-18T11:14:30;15.30;99.90
59556;DHT22;45374;52.746;6.304;2023-05-18T11:17:16;15.40;99.90
59556;DHT22;45374;52.746;6.304;2023-05-18T11:23:00;15.50;99.90
59556;DHT22;45374;52.746;6.304;2023-05-18T11:27:56;15.60;99.90
59556;DHT22;45374;52.746;6.304;2023-05-18T11:35:33;15.70;99.90
59556;DHT22;45374;52.746;6.304;2023-05-18T11:38:08;15.70;99.90
59556;DHT22;45374;52.746;6.304;2023-05-18T11:40:48;15.70;99.90
59556;DHT22;45374;52.746;6.304;2023-05-18T11:43:24;15.60;99.90
59556;DHT22;45374;52.746;6.304;2023-05-18T11:45:54;15.70;99.90
59556;DHT22;45374;52.746;6.304;2023-05-18T11:48:25;15.70;99.90
59556;DHT22;45374;52.746;6.304;2023-05-18T11:50:54;15.70;99.90
59556;DHT22;45374;52.746;6.304;2023-05-18T11:53:25;15.70;99.90
59556;DHT22;45374;52.746;6.304;2023-05-18T11:55:52;15.80;99.90
59556;DHT22;45374;52.746;6.304;2023-05-18T11:58:19;15.80;99.90
59556;DHT22;45374;52.746;6.304;2023-05-18T12:00:47;15.90;99.90
59556;DHT22;45374;52.746;6.304;2023-05-18T12:03:13;16.00;99.90
59556;DHT22;45374;52.746;6.304;2023-05-18T12:05:40;15.90;99.90
59556;DHT22;45374;52.746;6.304;2023-05-18T12:08:08;15.90;99.90
59556;DHT22;45374;52.746;6.304;2023-05-18T12:10:33;16.00;99.90
59556;DHT22;45374;52.746;6.304;2023-05-18T12:13:01;16.10;99.90
59556;DHT22;45374;52.746;6.304;2023-05-18T12:15:27;16.10;99.90
59556;DHT22;45374;52.746;6.304;2023-05-18T12:17:53;16.30;99.90
59556;DHT22;45374;52.746;6.304;2023-05-18T12:20:20;16.30;99.90
59556;DHT22;45374;52.746;6.304;2023-05-18T12:22:48;16.40;99.90
59556;DHT22;45374;52.746;6.304;2023-05-18T12:25:22;16.40;99.90
59556;DHT22;45374;52.746;6.304;2023-05-18T12:27:49;16.30;99.90
59556;DHT22;45374;52.746;6.304;2023-05-18T12:30:17;16.40;99.90
59556;DHT22;45374;52.746;6.304;2023-05-18T12:32:51;16.40;99.90
59556;DHT22;45374;52.746;6.304;2023-05-18T12:35:24;16.50;99.90
59556;DHT22;45374;52.746;6.304;2023-05-18T12:37:50;16.50;99.90
59556;DHT22;45374;52.746;6.304;2023-05-18T12:40:18;16.50;99.90
59556;DHT22;45374;52.746;6.304;2023-05-18T12:42:54;16.60;99.90
59556;DHT22;45374;52.746;6.304;2023-05-18T12:45:25;16.60;99.90
59556;DHT22;45374;52.746;6.304;2023-05-18T12:47:52;16.70;99.90
59556;DHT22;45374;52.746;6.304;2023-05-18T12:50:20;16.70;99.90
59556;DHT22;45374;52.746;6.304;2023-05-18T12:52:49;16.70;99.90
59556;DHT22;45374;52.746;6.304;2023-05-18T12:55:19;16.70;99.90
59556;DHT22;45374;52.746;6.304;2023-05-18T13:00:35;16.80;99.90
59556;DHT22;45374;52.746;6.304;2023-05-18T13:03:09;16.80;99.40
59556;DHT22;45374;52.746;6.304;2023-05-18T13:05:35;16.80;99.90
59556;DHT22;45374;52.746;6.304;2023-05-18T13:08:01;16.80;99.90
59556;DHT22;45374;52.746;6.304;2023-05-18T13:10:30;16.80;99.90
59556;DHT22;45374;52.746;6.304;2023-05-18T13:12:57;16.70;99.90
59556;DHT22;45374;52.746;6.304;2023-05-18T13:15:37;16.60;99.90
59556;DHT22;45374;52.746;6.304;2023-05-18T13:18:07;16.50;99.90
59556;DHT22;45374;52.746;6.304;2023-05-18T13:20:47;16.40;99.90
59556;DHT22;45374;52.746;6.304;2023-05-18T13:23:16;16.30;99.90
59556;DHT22;45374;52.746;6.304;2023-05-18T13:25:42;16.30;99.90
59556;DHT22;45374;52.746;6.304;2023-05-18T13:28:09;16.20;99.90
59556;DHT22;45374;52.746;6.304;2023-05-18T13:30:36;16.10;99.90
59556;DHT22;45374;52.746;6.304;2023-05-18T13:33:02;16.00;99.90
59556;DHT22;45374;52.746;6.304;2023-05-18T13:35:28;15.90;99.90
59556;DHT22;45374;52.746;6.304;2023-05-18T13:37:53;15.90;99.90
59556;DHT22;45374;52.746;6.304;2023-05-18T13:40:20;15.90;99.90
59556;DHT22;45374;52.746;6.304;2023-05-18T13:42:46;15.90;99.90
59556;DHT22;45374;52.746;6.304;2023-05-18T13:45:12;16.00;99.90
59556;DHT22;45374;52.746;6.304;2023-05-18T13:47:39;16.00;99.90
59556;DHT22;45374;52.746;6.304;2023-05-18T13:50:06;16.00;99.90
59556;DHT22;45374;52.746;6.304;2023-05-18T13:52:33;16.00;99.90
59556;DHT22;45374;52.746;6.304;2023-05-18T13:54:59;15.90;99.90
59556;DHT22;45374;52.746;6.304;2023-05-18T13:57:24;15.90;99.90
59556;DHT22;45374;52.746;6.304;2023-05-18T13:59:51;15.80;99.90
59556;DHT22;45374;52.746;6.304;2023-05-18T14:02:18;15.80;99.90
59556;DHT22;45374;52.746;6.304;2023-05-18T14:04:43;15.80;99.90
59556;DHT22;45374;52.746;6.304;2023-05-18T14:07:09;15.80;99.90
59556;DHT22;45374;52.746;6.304;2023-05-18T14:09:35;15.80;99.90
59556;DHT22;45374;52.746;6.304;2023-05-18T14:12:01;15.80;99.90
59556;DHT22;45374;52.746;6.304;2023-05-18T14:14:29;15.80;99.90
59556;DHT22;45374;52.746;6.304;2023-05-18T14:16:55;15.70;99.90
59556;DHT22;45374;52.746;6.304;2023-05-18T14:19:20;15.70;99.90
59556;DHT22;45374;52.746;6.304;2023-05-18T14:21:46;15.70;99.90
59556;DHT22;45374;52.746;6.304;2023-05-18T14:24:12;15.80;99.90
59556;DHT22;45374;52.746;6.304;2023-05-18T14:26:39;15.90;99.90
59556;DHT22;45374;52.746;6.304;2023-05-18T14:29:05;16.10;99.90
59556;DHT22;45374;52.746;6.304;2023-05-18T14:31:31;16.30;99.90
59556;DHT22;45374;52.746;6.304;2023-05-18T14:33:56;16.60;99.90
59556;DHT22;45374;52.746;6.304;2023-05-18T14:36:22;16.90;99.90
59556;DHT22;45374;52.746;6.304;2023-05-18T14:38:47;17.10;99.90
59556;DHT22;45374;52.746;6.304;2023-05-18T14:41:13;17.40;99.90
59556;DHT22;45374;52.746;6.304;2023-05-18T14:43:39;17.60;99.90
59556;DHT22;45374;52.746;6.304;2023-05-18T14:46:05;17.80;99.90
59556;DHT22;45374;52.746;6.304;2023-05-18T14:48:30;17.90;99.90
59556;DHT22;45374;52.746;6.304;2023-05-18T14:50:56;17.90;99.90
59556;DHT22;45374;52.746;6.304;2023-05-18T14:53:21;17.80;99.90
59556;DHT22;45374;52.746;6.304;2023-05-18T14:55:47;17.90;99.30
59556;DHT22;45374;52.746;6.304;2023-05-18T14:58:13;18.00;99.70
59556;DHT22;45374;52.746;6.304;2023-05-18T15:00:42;18.00;99.40
59556;DHT22;45374;52.746;6.304;2023-05-18T15:03:08;18.20;98.30
59556;DHT22;45374;52.746;6.304;2023-05-18T15:05:33;18.30;98.40
59556;DHT22;45374;52.746;6.304;2023-05-18T15:07:59;18.40;99.00
59556;DHT22;45374;52.746;6.304;2023-05-18T15:10:25;18.60;98.90
59556;DHT22;45374;52.746;6.304;2023-05-18T15:12:50;18.60;98.70
59556;DHT22;45374;52.746;6.304;2023-05-18T15:15:16;18.60;98.10
59556;DHT22;45374;52.746;6.304;2023-05-18T15:17:41;18.60;97.50
59556;DHT22;45374;52.746;6.304;2023-05-18T15:20:08;18.50;96.60
59556;DHT22;45374;52.746;6.304;2023-05-18T15:22:34;18.50;97.80
59556;DHT22;45374;52.746;6.304;2023-05-18T15:25:01;18.60;97.70
59556;DHT22;45374;52.746;6.304;2023-05-18T15:27:27;18.50;97.00
59556;DHT22;45374;52.746;6.304;2023-05-18T15:29:53;18.50;97.30
59556;DHT22;45374;52.746;6.304;2023-05-18T15:32:18;18.50;96.10
59556;DHT22;45374;52.746;6.304;2023-05-18T15:34:44;18.40;97.00
59556;DHT22;45374;52.746;6.304;2023-05-18T15:37:10;18.50;97.50
59556;DHT22;45374;52.746;6.304;2023-05-18T15:39:36;18.50;98.10
59556;DHT22;45374;52.746;6.304;2023-05-18T15:42:02;18.40;97.70
59556;DHT22;45374;52.746;6.304;2023-05-18T15:44:29;18.40;97.10
59556;DHT22;45374;52.746;6.304;2023-05-18T15:46:55;18.40;96.80
59556;DHT22;45374;52.746;6.304;2023-05-18T15:49:21;18.40;97.00
59556;DHT22;45374;52.746;6.304;2023-05-18T15:51:47;18.40;97.00
59556;DHT22;45374;52.746;6.304;2023-05-18T15:54:12;18.40;97.50
59556;DHT22;45374;52.746;6.304;2023-05-18T15:56:38;18.40;98.80
59556;DHT22;45374;52.746;6.304;2023-05-18T15:59:04;18.60;98.80
59556;DHT22;45374;52.746;6.304;2023-05-18T16:01:31;18.60;98.80
59556;DHT22;45374;52.746;6.304;2023-05-18T16:03:57;18.50;98.50